Decoded Metar for YBBN (BRISBANE in AUSTRALIA) (IATA:BNE) | Meteo·Mobile Aviation Weather
aviador You're here:

YBBN Decoded Metar

BRISBANE in AUSTRALIA
Report Time2018-10-19 08:00:00
UTC Time2018-10-19 08:45:40
Flight Rules vfr VFR
Wind060° at 07 kt
W.Decomp.*RWY 01: 5.4 kt HW 4.4 kt RCW
RWY 32: 0.1 kt HW 7.0 kt RCW
W.Rank060° ranks 19
Current wind is below 060° avg. (7.8)
Visibility9999 m
Phenomena:N/A
Clouds:Few 035 Hf
Expected CloudBase > 2,000 ft AGL from Temp-Dew spread
CeilingNone
Temp21°C (ISA +6)
Dew Point16°C (73% RH)
AAT20.5°C
QNH1017 hPa
Density Alt827 ft
Elevation16 ft
Report Wrong Elevation
Raw Report
METAR YBBN 190800Z 06007KT 9999 FEW035 21/16 Q1017 NOSIG=

Extra information for YBBN:More info

Metar Taf Metar & Taf Last 4 Metars F.Rules Stats Wind Profile Meteogram Temp Stats Airport Information Weather charts Add Link Nearby VenuesMetar ALERT Operation Metar Decoded Social comments